M I D A S
Marine Information and Data Acquisition System
Tripno 1367 of the Zeeleeuw from 2007-11-28 07:47:49 to 2007-11-28 14:43:21
Back to CruiseResearch ActivitiesStationsMapUnderway DataData graphs

EquipmentUnitsComment
TimeDGPSUTC
LatitudeDGPSDM.mWGS84
LongitudeDGPSDM.mWGS84
HeadingGyrodeg 
SOGDGPSknotsSpeed over ground
COGDGPSdegCourse over ground
DepthEcho soundermeters200 kHz
Missing or incorrect values are displayed as -999
Navigation data collected by the RV Zeeleeuw from 2007-11-28 07:53:35 to 2007-11-28 14:54:06
                                                                                    Next 1000 lines
Time Latitude Longitude Heading SOG COG Depth
2007-11-28 07:53:44 51°13.599 2°56.094 108.1 1 284 6.6
2007-11-28 07:53:49 51°13.599 2°56.091 107.7 1.3 288 6.6
2007-11-28 07:53:55 51°13.6 2°56.087 107.5 1.7 289 6.6
2007-11-28 07:54:00 51°13.601 2°56.083 107.7 2 290 6.7
2007-11-28 07:54:04 51°13.602 2°56.079 108.6 2.3 290 -999
2007-11-28 07:54:10 51°13.603 2°56.073 109.5 2.6 290 -999
2007-11-28 07:54:15 51°13.605 2°56.067 110.6 2.9 291 -999
2007-11-28 07:54:20 51°13.607 2°56.061 111.3 3.2 292 -999
2007-11-28 07:54:25 51°13.609 2°56.054 112 3.5 292 -999
2007-11-28 07:54:30 51°13.611 2°56.046 113.1 3.9 293 -999
2007-11-28 07:54:35 51°13.613 2°56.037 113.7 4.2 293 -999
2007-11-28 07:54:40 51°13.616 2°56.028 114.1 4.5 294 -999
2007-11-28 07:54:45 51°13.619 2°56.019 114.2 4.8 294 -999
2007-11-28 07:54:50 51°13.621 2°56.009 114.3 5 294 -999
2007-11-28 07:54:55 51°13.624 2°55.998 114.2 5.1 293 -999
2007-11-28 07:55:00 51°13.627 2°55.988 114.6 5.3 294 -999
2007-11-28 07:55:05 51°13.63 2°55.977 115.2 5.4 295 -999
2007-11-28 07:55:10 51°13.633 2°55.966 116.1 5.5 295 -999
2007-11-28 07:55:15 51°13.637 2°55.955 117.5 5.5 295 -999
2007-11-28 07:55:20 51°13.64 2°55.944 118.5 5.6 297 -999
2007-11-28 07:55:25 51°13.644 2°55.933 119.5 5.6 298 -999
2007-11-28 07:55:30 51°13.648 2°55.922 120.6 5.7 299 -999
2007-11-28 07:55:35 51°13.652 2°55.911 121.5 5.7 299 -999
2007-11-28 07:55:40 51°13.656 2°55.9 122 5.6 300 -999
2007-11-28 07:55:45 51°13.66 2°55.89 122.3 5.6 301 -999
2007-11-28 07:55:50 51°13.664 2°55.88 122.5 5.4 301 -999
2007-11-28 07:55:55 51°13.667 2°55.87 122.5 5 301 -999
2007-11-28 07:56:00 51°13.671 2°55.861 122.5 4.9 301 -999
2007-11-28 07:56:05 51°13.674 2°55.851 122.1 4.8 301 -999
2007-11-28 07:56:10 51°13.677 2°55.842 121.2 4.7 301 -999
2007-11-28 07:56:15 51°13.68 2°55.833 120.6 4.7 299 5.1
2007-11-28 07:56:20 51°13.683 2°55.824 119.7 4.6 299 -999
2007-11-28 07:56:24 51°13.686 2°55.817 118.6 4.6 298 -999
2007-11-28 07:56:30 51°13.689 2°55.807 117.1 4.5 298 -999
2007-11-28 07:56:35 51°13.692 2°55.799 115.9 4.2 297 -999
2007-11-28 07:56:40 51°13.695 2°55.791 115 4 297 -999
2007-11-28 07:56:45 51°13.697 2°55.783 113.9 3.8 297 -999
2007-11-28 07:56:50 51°13.699 2°55.776 112.7 3.7 296 -999
2007-11-28 07:56:56 51°13.702 2°55.767 111.2 3.6 295 -999
2007-11-28 07:57:00 51°13.703 2°55.761 110.1 3.4 294 -999
2007-11-28 07:57:04 51°13.705 2°55.756 109.2 3.3 294 11.9
2007-11-28 07:57:09 51°13.706 2°55.75 108.6 3.2 292 -999
2007-11-28 07:57:15 51°13.708 2°55.742 107.3 3 293 -999
2007-11-28 07:57:20 51°13.71 2°55.737 105.9 2.6 292 -999
2007-11-28 07:57:24 51°13.711 2°55.734 103.8 2.1 292 11.5
2007-11-28 07:57:29 51°13.711 2°55.73 101.6 1.9 291 11.2
2007-11-28 07:57:35 51°13.713 2°55.725 98 1.7 289 11.1
2007-11-28 07:57:40 51°13.713 2°55.722 94.3 1.6 288 10.9
2007-11-28 07:57:44 51°13.713 2°55.719 91.1 1.4 286 10.8
2007-11-28 07:57:49 51°13.714 2°55.717 88.2 1.3 286 10.7
2007-11-28 07:57:55 51°13.714 2°55.713 85.4 1.2 283 10.5
2007-11-28 07:58:00 51°13.715 2°55.711 82.8 1.1 284 10.5
2007-11-28 07:58:04 51°13.715 2°55.709 80.4 1 284 10.5
2007-11-28 07:58:09 51°13.715 2°55.707 77.9 0.9 286 10.4
2007-11-28 07:58:15 51°13.716 2°55.706 75.4 0.8 288 10.4
2007-11-28 07:58:20 51°13.716 2°55.704 73 0.7 291 10.4
2007-11-28 07:58:24 51°13.716 2°55.703 70.4 0.6 297 10.4
2007-11-28 07:58:30 51°13.717 2°55.702 67.8 0.6 304 -999
2007-11-28 07:58:35 51°13.717 2°55.701 64.6 0.5 311 10.2
2007-11-28 07:58:40 51°13.717 2°55.7 61.9 0.5 322 10.1
2007-11-28 07:58:44 51°13.718 2°55.7 59.7 0.5 336 8.8
2007-11-28 07:58:50 51°13.719 2°55.699 57.1 0.6 354 10.1
2007-11-28 07:58:55 51°13.72 2°55.699 54.1 0.7 6 10.1
2007-11-28 07:59:00 51°13.721 2°55.7 50.6 0.9 15 10.2
2007-11-28 07:59:04 51°13.722 2°55.7 46.7 1.2 16 10.2
2007-11-28 07:59:10 51°13.724 2°55.701 42.1 1.4 18 10.3
2007-11-28 07:59:15 51°13.726 2°55.702 37.3 1.7 15 10.1
2007-11-28 07:59:20 51°13.729 2°55.704 31.9 2.1 13 10.1
2007-11-28 07:59:24 51°13.732 2°55.705 26 2.5 6 9.8
2007-11-28 07:59:29 51°13.736 2°55.706 19.4 2.9 3 9.6
2007-11-28 07:59:36 51°13.743 2°55.705 12.1 3.4 356 9.7
2007-11-28 07:59:40 51°13.747 2°55.704 4.4 4 350 9.8
2007-11-28 07:59:44 51°13.752 2°55.702 357.5 4.6 345 9.6
2007-11-28 07:59:50 51°13.76 2°55.697 350.9 5 341 9.6
2007-11-28 07:59:56 51°13.767 2°55.692 345.4 5 338 9.5
2007-11-28 08:00:00 51°13.772 2°55.689 341.5 5 336 9.4
2007-11-28 08:00:04 51°13.777 2°55.684 338.7 5.3 335 9.3
2007-11-28 08:00:10 51°13.786 2°55.677 337 5.6 333 9.1
2007-11-28 08:00:16 51°13.794 2°55.67 335.4 5.8 333 8.9
2007-11-28 08:00:20 51°13.8 2°55.665 334.5 6.1 332 9.2
2007-11-28 08:00:24 51°13.806 2°55.66 334.2 6.2 333 9.4
2007-11-28 08:00:30 51°13.816 2°55.652 334.1 6.5 333 9.3
2007-11-28 08:00:36 51°13.826 2°55.644 334.5 6.7 334 9.1
2007-11-28 08:00:40 51°13.833 2°55.639 335.1 6.9 334 9.3
2007-11-28 08:00:44 51°13.84 2°55.634 335.6 5.5 334 9.3
2007-11-28 08:00:50 51°13.851 2°55.625 336 7.2 334 9.2
2007-11-28 08:00:55 51°13.86 2°55.618 336.1 7.5 334 9.4
2007-11-28 08:01:00 51°13.869 2°55.61 335.7 7.7 334 9.4
2007-11-28 08:01:04 51°13.877 2°55.604 335.2 7.8 333 9.4
2007-11-28 08:01:10 51°13.889 2°55.595 335.2 8 334 9.4
2007-11-28 08:01:15 51°13.899 2°55.587 335.3 8.1 333 9.4
2007-11-28 08:01:20 51°13.909 2°55.579 335.3 8.2 334 9.4
2007-11-28 08:01:24 51°13.918 2°55.572 335.9 8.3 334 9.6
2007-11-28 08:01:30 51°13.93 2°55.562 336.1 8.4 333 9.5
2007-11-28 08:01:36 51°13.943 2°55.553 335.8 8.4 334 9.3
2007-11-28 08:01:40 51°13.951 2°55.546 335.8 8.5 334 9.2
2007-11-28 08:01:44 51°13.96 2°55.54 336 8.5 334 9.2
2007-11-28 08:01:49 51°13.97 2°55.531 335.7 8.5 334 9.1
2007-11-28 08:01:56 51°13.985 2°55.52 335.5 8.5 335 9.1
2007-11-28 08:02:00 51°13.994 2°55.514 336.1 8.5 335 9.1
2007-11-28 08:02:04 51°14.003 2°55.507 336.2 8.6 335 9
2007-11-28 08:02:10 51°14.015 2°55.497 336.2 8.6 335 9.1
2007-11-28 08:02:14 51°14.024 2°55.491 336.4 8.6 334 8.7
2007-11-28 08:02:20 51°14.037 2°55.481 336.4 8.6 335 8.4
2007-11-28 08:02:24 51°14.045 2°55.474 336.4 8.6 334 8.9
2007-11-28 08:02:29 51°14.056 2°55.465 336.4 8.6 334 9.2
2007-11-28 08:02:36 51°14.071 2°55.453 336.4 8.6 333 9.2
2007-11-28 08:02:40 51°14.079 2°55.447 335.9 8.4 333 8.4
2007-11-28 08:02:44 51°14.087 2°55.44 335.5 8.3 333 8.6
2007-11-28 08:02:50 51°14.1 2°55.431 335.8 8.2 335 8.3
2007-11-28 08:02:56 51°14.112 2°55.421 336.6 8.1 334 8.5
2007-11-28 08:03:00 51°14.12 2°55.415 336.7 8 334 8.8
2007-11-28 08:03:04 51°14.128 2°55.409 336.4 7.9 333 9.3
2007-11-28 08:03:10 51°14.139 2°55.4 336 7.9 333 9.3
2007-11-28 08:03:15 51°14.149 2°55.392 335.6 7.9 332 9.4
2007-11-28 08:03:20 51°14.158 2°55.383 334.2 7.8 331 -999
2007-11-28 08:03:25 51°14.168 2°55.374 332.4 7.8 329 -999
2007-11-28 08:03:30 51°14.177 2°55.365 331.3 7.7 328 9.1
2007-11-28 08:03:35 51°14.186 2°55.356 330.3 7.7 327 9.3
2007-11-28 08:03:40 51°14.194 2°55.346 329.3 7.6 326 9.5
2007-11-28 08:03:44 51°14.201 2°55.338 327.9 7.6 325 9.4
2007-11-28 08:03:50 51°14.211 2°55.326 326.8 7.6 324 -999
2007-11-28 08:03:55 51°14.22 2°55.316 325.2 7.5 322 -999
2007-11-28 08:04:00 51°14.228 2°55.306 323.6 7.5 320 9.5
2007-11-28 08:04:04 51°14.234 2°55.297 322.2 7.5 319 9.5
2007-11-28 08:04:09 51°14.242 2°55.286 320.8 7.5 318 9.5
2007-11-28 08:04:16 51°14.252 2°55.27 319.8 7.4 317 9.4
2007-11-28 08:04:20 51°14.258 2°55.261 318.6 7.4 316 9.3
2007-11-28 08:04:24 51°14.264 2°55.251 317.6 7.4 314 9.3
2007-11-28 08:04:29 51°14.271 2°55.239 316.6 7.4 313 9.3
2007-11-28 08:04:34 51°14.278 2°55.227 315.5 7.4 312 9.3
2007-11-28 08:04:39 51°14.285 2°55.215 313.9 7.4 310 9.4
2007-11-28 08:04:44 51°14.291 2°55.202 312.6 7.5 310 9.3
2007-11-28 08:04:49 51°14.298 2°55.189 311.5 7.9 309 9.2
2007-11-28 08:04:55 51°14.306 2°55.172 310.3 8.2 309 9.3
2007-11-28 08:05:00 51°14.314 2°55.157 309.9 8.4 309 9.5
2007-11-28 08:05:04 51°14.32 2°55.145 310.5 8.8 308 9.6
2007-11-28 08:05:10 51°14.329 2°55.126 310.6 9.2 309 9.6
2007-11-28 08:05:15 51°14.337 2°55.109 311.1 9.6 308 9.7
2007-11-28 08:05:19 51°14.344 2°55.095 310.6 9.9 307 9.6
2007-11-28 08:05:24 51°14.352 2°55.077 309.3 10.2 305 9.4
2007-11-28 08:05:30 51°14.362 2°55.054 308.3 10.4 305 9.3
2007-11-28 08:05:35 51°14.371 2°55.035 307.3 10.6 306 9.1
2007-11-28 08:05:40 51°14.379 2°55.016 307.9 10.8 305 8.9
2007-11-28 08:05:44 51°14.386 2°55 308.1 11.1 304 8.9
2007-11-28 08:05:50 51°14.397 2°54.975 307.3 11.3 304 9.1
2007-11-28 08:05:55 51°14.406 2°54.954 307 11.6 304 9.2
2007-11-28 08:06:00 51°14.415 2°54.932 307 11.8 303 9.1
2007-11-28 08:06:04 51°14.422 2°54.914 306.7 12 302 9.5
2007-11-28 08:06:09 51°14.431 2°54.891 306.1 12.2 303 9.4
2007-11-28 08:06:15 51°14.442 2°54.864 306 12.4 303 9.4
2007-11-28 08:06:20 51°14.452 2°54.841 306.6 12.5 306 9.4
2007-11-28 08:06:24 51°14.46 2°54.823 309.8 12.7 305 9.5
2007-11-28 08:06:29 51°14.47 2°54.8 311.3 12.7 306 9.4
2007-11-28 08:06:35 51°14.483 2°54.773 312.4 12.7 308 9.3
2007-11-28 08:06:40 51°14.495 2°54.752 314 12.7 310 9.3
2007-11-28 08:06:44 51°14.504 2°54.735 316 12.7 312 9.4
2007-11-28 08:06:49 51°14.516 2°54.715 318.3 12.7 315 9.1
2007-11-28 08:06:55 51°14.531 2°54.691 320.3 12.7 316 8.9
2007-11-28 08:06:59 51°14.542 2°54.676 322.2 12.7 317 8.8
2007-11-28 08:07:04 51°14.555 2°54.657 324.1 12.6 319 8.9
2007-11-28 08:07:09 51°14.568 2°54.639 325 12.6 320 8.7
2007-11-28 08:07:15 51°14.585 2°54.62 326.5 12.5 324 8.6
2007-11-28 08:07:19 51°14.596 2°54.606 328.8 12.5 324 8.6
2007-11-28 08:07:24 51°14.611 2°54.591 330.8 12.5 327 8.6
2007-11-28 08:07:29 51°14.625 2°54.576 332.9 12.5 327 8.5
2007-11-28 08:07:34 51°14.64 2°54.561 334.1 12.5 328 8.4
2007-11-28 08:07:39 51°14.655 2°54.547 335.3 12.5 328 8.5
2007-11-28 08:07:44 51°14.67 2°54.533 336.2 12.4 330 8.5
2007-11-28 08:07:48 51°14.682 2°54.522 337 12.4 329 8.6
2007-11-28 08:07:53 51°14.697 2°54.508 337.5 12.5 330 8.5
2007-11-28 08:07:58 51°14.712 2°54.494 337.7 12.5 330 8.4
2007-11-28 08:08:02 51°14.724 2°54.483 337.9 12.5 331 8.5
2007-11-28 08:08:08 51°14.742 2°54.467 338.3 12.5 330 8.5
2007-11-28 08:08:12 51°14.754 2°54.457 338.6 12.5 331 8.5
2007-11-28 08:08:17 51°14.769 2°54.443 338.7 12.5 331 8.1
2007-11-28 08:08:21 51°14.781 2°54.432 338.3 12.4 330 8.2
2007-11-28 08:08:26 51°14.796 2°54.419 338 12.4 330 8
2007-11-28 08:08:31 51°14.811 2°54.405 337.6 12.4 329 8
2007-11-28 08:08:36 51°14.827 2°54.391 337.3 12.4 330 8
2007-11-28 08:08:40 51°14.838 2°54.38 337.1 12.4 329 8
2007-11-28 08:08:46 51°14.856 2°54.363 336.7 12.4 330 8.2
2007-11-28 08:08:51 51°14.871 2°54.349 336.7 12.5 330 8.1
2007-11-28 08:08:56 51°14.886 2°54.335 336.7 12.5 330 7.9
2007-11-28 08:09:00 51°14.898 2°54.324 336.8 12.5 330 7.7
2007-11-28 08:09:06 51°14.916 2°54.308 337 12.4 330 7.7
2007-11-28 08:09:11 51°14.931 2°54.295 337.4 12.3 331 7.7
2007-11-28 08:09:16 51°14.946 2°54.281 337.5 12.3 330 7.4
2007-11-28 08:09:20 51°14.957 2°54.27 337 12.2 330 5.5
2007-11-28 08:09:26 51°14.975 2°54.255 336.9 12.2 330 7.5
2007-11-28 08:09:31 51°14.99 2°54.241 336.7 12.2 330 7.2
2007-11-28 08:09:36 51°15.004 2°54.228 336.4 12.1 329 7.1
2007-11-28 08:09:41 51°15.018 2°54.213 335.1 12.1 327 7.1
2007-11-28 08:09:46 51°15.032 2°54.198 333.3 12.2 326 7.1
2007-11-28 08:09:51 51°15.046 2°54.182 331.9 12.2 325 -999
2007-11-28 08:09:56 51°15.06 2°54.166 330.6 12.3 323 7.3
2007-11-28 08:10:01 51°15.073 2°54.15 329.8 12.3 324 7.3
2007-11-28 08:10:06 51°15.087 2°54.134 329.4 12.4 323 7.5
2007-11-28 08:10:12 51°15.103 2°54.114 329.1 12.4 324 7.5
2007-11-28 08:10:17 51°15.117 2°54.097 329.3 12.4 323 7.6
2007-11-28 08:10:21 51°15.128 2°54.084 329.4 12.5 323 7.7
2007-11-28 08:10:27 51°15.145 2°54.065 329.4 12.5 324 7.5
2007-11-28 08:10:32 51°15.159 2°54.05 329.8 12.5 326 7.6
2007-11-28 08:10:37 51°15.174 2°54.036 333.1 12.5 330 7.7
2007-11-28 08:10:41 51°15.186 2°54.026 336 12.5 332 7.7
2007-11-28 08:10:47 51°15.205 2°54.012 338.4 12.4 335 7.7
2007-11-28 08:10:52 51°15.221 2°54.002 341.1 12.3 337 7.8
2007-11-28 08:10:57 51°15.237 2°53.992 344.6 12.3 340 7.8
2007-11-28 08:11:01 51°15.25 2°53.985 346.8 12.2 341 7.8
2007-11-28 08:11:07 51°15.269 2°53.975 348.2 12.3 341 7.9
2007-11-28 08:11:12 51°15.285 2°53.966 347.9 12.4 340 8
2007-11-28 08:11:17 51°15.301 2°53.955 346.9 12.4 339 8.1
2007-11-28 08:11:21 51°15.314 2°53.948 346.1 12.4 339 8
2007-11-28 08:11:27 51°15.333 2°53.935 345.5 12.4 337 8.1
2007-11-28 08:11:32 51°15.349 2°53.925 344.7 12.4 338 8.1
2007-11-28 08:11:37 51°15.365 2°53.913 344.5 12.5 336 8.2
2007-11-28 08:11:41 51°15.378 2°53.904 343.3 12.5 335 8.3
2007-11-28 08:11:47 51°15.396 2°53.889 341.3 12.5 333 8.3
2007-11-28 08:11:52 51°15.411 2°53.876 340.4 12.5 332 8.3
2007-11-28 08:11:57 51°15.427 2°53.863 339.4 12.6 332 8.4
2007-11-28 08:12:01 51°15.439 2°53.852 338.8 12.6 331 8.4
2007-11-28 08:12:07 51°15.457 2°53.836 338.3 12.6 331 8.6
2007-11-28 08:12:12 51°15.473 2°53.823 338.2 12.6 331 8.8
2007-11-28 08:12:17 51°15.488 2°53.81 338.5 12.6 332 8.7
2007-11-28 08:12:21 51°15.501 2°53.799 338.9 12.6 332 8.7
2007-11-28 08:12:27 51°15.519 2°53.784 339.2 12.6 332 8.7
2007-11-28 08:12:32 51°15.534 2°53.771 339.5 12.6 333 8.8
2007-11-28 08:12:37 51°15.55 2°53.759 340.6 12.5 334 8.8
2007-11-28 08:12:41 51°15.562 2°53.749 341 12.5 333 9
2007-11-28 08:12:47 51°15.581 2°53.734 341 12.5 334 9
2007-11-28 08:12:52 51°15.597 2°53.722 341.3 12.6 334 9
2007-11-28 08:12:57 51°15.613 2°53.711 342.5 12.6 336 9
2007-11-28 08:13:01 51°15.625 2°53.702 343.2 12.6 336 9.1
2007-11-28 08:13:07 51°15.645 2°53.689 344 12.5 337 9.1
2007-11-28 08:13:12 51°15.661 2°53.679 344.7 12.5 338 9.2
2007-11-28 08:13:17 51°15.677 2°53.668 345 12.5 338 9.2
2007-11-28 08:13:21 51°15.69 2°53.66 345.2 12.5 338 9.3
2007-11-28 08:13:27 51°15.709 2°53.647 345.1 12.5 337 9.3
2007-11-28 08:13:32 51°15.725 2°53.635 344.3 12.5 335 9.3
2007-11-28 08:13:37 51°15.74 2°53.623 342.7 12.6 334 9.4
2007-11-28 08:13:41 51°15.753 2°53.613 341.8 12.7 332 9.5
2007-11-28 08:13:47 51°15.771 2°53.596 339.9 12.6 331 9.5
2007-11-28 08:13:52 51°15.786 2°53.582 338.5 12.6 329 9.5
2007-11-28 08:13:57 51°15.801 2°53.568 337.1 12.6 329 9.6
2007-11-28 08:14:01 51°15.813 2°53.556 336.7 12.7 329 9.5
2007-11-28 08:14:07 51°15.831 2°53.539 336.3 12.7 329 9.5
2007-11-28 08:14:12 51°15.846 2°53.524 336.2 12.7 329 9.6
2007-11-28 08:14:17 51°15.861 2°53.509 336 12.6 328 9.6
2007-11-28 08:14:21 51°15.873 2°53.498 335.8 12.7 329 9.7
2007-11-28 08:14:27 51°15.891 2°53.48 336.3 12.7 329 9.8
2007-11-28 08:14:32 51°15.907 2°53.467 336.8 12.6 330 9.7
2007-11-28 08:14:37 51°15.922 2°53.453 338 12.6 331 9.8
2007-11-28 08:14:41 51°15.934 2°53.442 338.4 12.7 332 9.9
2007-11-28 08:14:47 51°15.953 2°53.427 339.1 12.6 332 9.9
2007-11-28 08:14:52 51°15.968 2°53.415 340.1 12.6 333 9.8
2007-11-28 08:14:57 51°15.984 2°53.402 340.4 12.6 333 9.9
2007-11-28 08:15:01 51°15.996 2°53.392 341 12.5 334 9.9
2007-11-28 08:15:07 51°16.015 2°53.377 341.2 12.5 333 9.9
2007-11-28 08:15:12 51°16.031 2°53.364 341.2 12.7 333 9.9
2007-11-28 08:15:17 51°16.046 2°53.351 340.4 12.7 332 9.9
2007-11-28 08:15:21 51°16.059 2°53.341 340 12.6 332 9.9
2007-11-28 08:15:27 51°16.077 2°53.324 339.5 12.6 330 10
2007-11-28 08:15:32 51°16.092 2°53.311 338.6 12.7 331 10
2007-11-28 08:15:37 51°16.107 2°53.296 338.2 12.7 330 9.9
2007-11-28 08:15:41 51°16.12 2°53.285 337.6 12.7 330 10
2007-11-28 08:15:47 51°16.138 2°53.268 337.4 12.7 329 10
2007-11-28 08:15:52 51°16.153 2°53.255 337.5 12.6 331 10
2007-11-28 08:15:57 51°16.169 2°53.24 338 12.7 330 10.1
2007-11-28 08:16:01 51°16.181 2°53.23 338.4 12.7 332 10.1
2007-11-28 08:16:07 51°16.199 2°53.214 338.6 12.6 331 10
2007-11-28 08:16:12 51°16.215 2°53.201 339.1 12.6 332 10
2007-11-28 08:16:17 51°16.23 2°53.188 339.6 12.6 333 10
2007-11-28 08:16:21 51°16.243 2°53.178 340.3 12.6 333 10.1
2007-11-28 08:16:27 51°16.262 2°53.163 340.8 12.6 333 10.1
2007-11-28 08:16:32 51°16.277 2°53.15 341.1 12.6 333 10
2007-11-28 08:16:37 51°16.293 2°53.137 340 12.6 332 10.1
2007-11-28 08:16:41 51°16.305 2°53.127 339.4 12.6 332 10.1
2007-11-28 08:16:47 51°16.323 2°53.11 338.6 12.7 331 10.1
2007-11-28 08:16:52 51°16.338 2°53.097 338 12.6 331 10
2007-11-28 08:16:57 51°16.354 2°53.083 337.5 12.6 331 10.1
2007-11-28 08:17:01 51°16.366 2°53.072 337.4 12.6 331 10
2007-11-28 08:17:07 51°16.384 2°53.056 337.4 12.6 331 10.1
2007-11-28 08:17:12 51°16.4 2°53.042 337.5 12.6 331 10.1
2007-11-28 08:17:17 51°16.415 2°53.029 337.5 12.6 331 10.1
2007-11-28 08:17:21 51°16.427 2°53.017 337.4 12.7 330 10.2
2007-11-28 08:17:27 51°16.446 2°53.001 337 12.7 331 10.2
2007-11-28 08:17:32 51°16.461 2°52.987 337.3 12.7 330 10.1
2007-11-28 08:17:37 51°16.476 2°52.974 337.4 12.6 331 10.2
2007-11-28 08:17:41 51°16.489 2°52.963 337.3 12.7 331 10
2007-11-28 08:17:47 51°16.507 2°52.947 337.7 12.6 332 10
2007-11-28 08:17:52 51°16.522 2°52.933 337.7 12.6 331 10.1
2007-11-28 08:17:57 51°16.538 2°52.92 337.7 12.6 332 10.1
2007-11-28 08:18:01 51°16.55 2°52.909 337.8 12.6 332 10
2007-11-28 08:18:07 51°16.568 2°52.893 337.7 12.6 330 10
2007-11-28 08:18:12 51°16.584 2°52.88 337.6 12.6 332 10
2007-11-28 08:18:17 51°16.599 2°52.867 338.2 12.6 332 9.9
2007-11-28 08:18:21 51°16.612 2°52.857 338.4 12.6 333 10
2007-11-28 08:18:27 51°16.63 2°52.841 338.5 12.6 332 9.9
2007-11-28 08:18:32 51°16.646 2°52.829 338.5 12.6 333 9.8
2007-11-28 08:18:37 51°16.661 2°52.816 338.6 12.6 333 9.8
2007-11-28 08:18:41 51°16.674 2°52.806 338.9 12.6 334 9.5
2007-11-28 08:18:47 51°16.693 2°52.792 339.6 12.6 334 9.7
2007-11-28 08:18:52 51°16.709 2°52.78 340.1 12.5 335 9.3
2007-11-28 08:18:57 51°16.724 2°52.769 341 12.5 336 9
2007-11-28 08:19:01 51°16.737 2°52.76 341.9 12.5 337 8.8
2007-11-28 08:19:07 51°16.756 2°52.747 342.6 12.4 337 8.4
2007-11-28 08:19:12 51°16.772 2°52.737 342.9 12.3 338 8.1
2007-11-28 08:19:17 51°16.788 2°52.726 343.5 12.3 338 8.2
2007-11-28 08:19:21 51°16.8 2°52.718 343.6 12.2 338 8.3
2007-11-28 08:19:27 51°16.819 2°52.706 343.4 12.3 338 8.3
2007-11-28 08:19:32 51°16.835 2°52.696 343.8 12.3 338 8.3
2007-11-28 08:19:37 51°16.851 2°52.686 344 12.3 339 7.8
2007-11-28 08:19:41 51°16.863 2°52.678 344.1 12.3 338 7.9
2007-11-28 08:19:47 51°16.882 2°52.666 344.1 12.3 338 7.8
2007-11-28 08:19:52 51°16.898 2°52.655 343.4 12.3 338 8
2007-11-28 08:19:57 51°16.914 2°52.644 343.1 12.3 337 8.1
2007-11-28 08:20:01 51°16.926 2°52.635 342.3 12.4 336 8.2
2007-11-28 08:20:07 51°16.946 2°52.622 341.8 12.5 336 8.3
2007-11-28 08:20:12 51°16.961 2°52.611 341.6 12.5 336 8.5
2007-11-28 08:20:17 51°16.977 2°52.599 341.5 12.5 335 8.2
2007-11-28 08:20:21 51°16.989 2°52.589 340.5 12.5 333 8.4
2007-11-28 08:20:27 51°17.008 2°52.574 338.8 12.5 332 8.3
2007-11-28 08:20:32 51°17.023 2°52.561 338.1 12.5 332 8.3
2007-11-28 08:20:37 51°17.038 2°52.548 337.1 12.4 331 8.2
2007-11-28 08:20:41 51°17.05 2°52.537 336.7 12.4 331 8.2
2007-11-28 08:20:47 51°17.068 2°52.521 336.4 12.4 331 8.2
2007-11-28 08:20:52 51°17.083 2°52.507 336.2 12.4 331 8.2
2007-11-28 08:20:57 51°17.098 2°52.494 335.9 12.4 331 8.2
2007-11-28 08:21:01 51°17.11 2°52.483 335.7 12.4 331 8.4
2007-11-28 08:21:07 51°17.128 2°52.467 336.1 12.5 331 8.4
2007-11-28 08:21:12 51°17.144 2°52.454 336 12.5 331 8.4
2007-11-28 08:21:17 51°17.159 2°52.44 335.9 12.5 331 8.5
2007-11-28 08:21:21 51°17.171 2°52.429 336.1 12.4 331 8.5
2007-11-28 08:21:27 51°17.189 2°52.414 336.3 12.5 332 8.5
2007-11-28 08:21:32 51°17.205 2°52.4 336.7 12.6 332 8.6
2007-11-28 08:21:37 51°17.22 2°52.388 337 12.6 333 8.5
2007-11-28 08:21:41 51°17.232 2°52.377 337.5 12.5 332 8.6
2007-11-28 08:21:47 51°17.251 2°52.361 337.2 12.5 332 8.8
2007-11-28 08:21:52 51°17.266 2°52.348 336.9 12.5 332 8.8
2007-11-28 08:21:57 51°17.282 2°52.335 336.9 12.5 332 8.7
2007-11-28 08:22:01 51°17.294 2°52.325 337.3 12.6 332 8.9
2007-11-28 08:22:07 51°17.312 2°52.309 336.9 12.5 331 9
2007-11-28 08:22:12 51°17.328 2°52.296 336.9 12.5 333 8.8
2007-11-28 08:22:17 51°17.343 2°52.283 337.1 12.5 331 9
2007-11-28 08:22:21 51°17.356 2°52.273 337 12.5 333 9.1
2007-11-28 08:22:27 51°17.374 2°52.258 337.8 12.5 332 9
2007-11-28 08:22:32 51°17.39 2°52.246 338.2 12.5 334 8.9
2007-11-28 08:22:37 51°17.405 2°52.233 339.2 12.4 333 9
2007-11-28 08:22:41 51°17.417 2°52.223 338.9 12.4 332 9
2007-11-28 08:22:47 51°17.434 2°52.204 335.5 12.5 326 9
2007-11-28 08:22:52 51°17.448 2°52.187 331.6 12.5 323 8.9
2007-11-28 08:22:57 51°17.461 2°52.169 328.1 12.5 319 9
2007-11-28 08:23:01 51°17.47 2°52.153 323.4 12.5 315 8.9
2007-11-28 08:23:07 51°17.484 2°52.128 319.6 12.6 313 9.1
2007-11-28 08:23:12 51°17.496 2°52.107 316.9 12.6 310 9
2007-11-28 08:23:17 51°17.507 2°52.085 314.6 12.6 309 9
2007-11-28 08:23:21 51°17.515 2°52.067 313.2 12.6 306 9
2007-11-28 08:23:27 51°17.526 2°52.039 310.9 12.7 304 9
2007-11-28 08:23:32 51°17.535 2°52.014 306.8 12.7 299 9
2007-11-28 08:23:37 51°17.543 2°51.99 304 12.7 298 8.8
2007-11-28 08:23:41 51°17.549 2°51.969 301.4 12.7 296 9.1
2007-11-28 08:23:47 51°17.558 2°51.939 299.7 12.8 295 8.8
2007-11-28 08:23:52 51°17.564 2°51.912 298.2 12.8 293 8.9
2007-11-28 08:23:57 51°17.571 2°51.886 296.9 12.8 292 9.1
2007-11-28 08:24:01 51°17.576 2°51.865 296 12.8 291 8.9
2007-11-28 08:24:07 51°17.583 2°51.833 295.3 12.8 291 8.8
2007-11-28 08:24:12 51°17.59 2°51.807 294.8 12.8 291 8.7
2007-11-28 08:24:17 51°17.596 2°51.78 294.3 12.8 290 8.9
2007-11-28 08:24:21 51°17.601 2°51.759 294.4 12.8 291 8.6
2007-11-28 08:24:27 51°17.608 2°51.727 294.6 12.8 290 8.6
2007-11-28 08:24:32 51°17.614 2°51.7 294.5 12.8 290 8.4
2007-11-28 08:24:37 51°17.621 2°51.674 294 12.8 290 8.4
2007-11-28 08:24:41 51°17.625 2°51.652 293.6 12.8 290 8.5
2007-11-28 08:24:47 51°17.633 2°51.621 293.9 12.8 291 8.4
2007-11-28 08:24:52 51°17.64 2°51.595 295.3 12.8 293 8.3
2007-11-28 08:24:57 51°17.647 2°51.569 296.8 12.8 293 8.2
2007-11-28 08:25:01 51°17.653 2°51.548 297.8 12.8 295 8.3
2007-11-28 08:25:07 51°17.662 2°51.518 299.1 12.8 295 8.2
2007-11-28 08:25:12 51°17.669 2°51.492 299.8 12.8 296 8.3
2007-11-28 08:25:17 51°17.677 2°51.467 300.4 12.8 296 8.3
2007-11-28 08:25:21 51°17.684 2°51.447 301 12.8 296 8.1
2007-11-28 08:25:27 51°17.693 2°51.416 301.2 12.8 297 8.2
2007-11-28 08:25:32 51°17.701 2°51.391 301.2 12.8 296 8.3
2007-11-28 08:25:37 51°17.709 2°51.365 300.4 12.8 295 8.3
2007-11-28 08:25:41 51°17.715 2°51.345 300.1 12.9 295 8.4
2007-11-28 08:25:47 51°17.723 2°51.313 299.3 12.9 293 8.4
2007-11-28 08:25:52 51°17.73 2°51.287 297.9 13 293 8.4
2007-11-28 08:25:57 51°17.737 2°51.26 297 12.9 292 8.6
2007-11-28 08:26:01 51°17.742 2°51.239 295.9 13 291 8.6
2007-11-28 08:26:07 51°17.75 2°51.207 295.4 12.9 291 8.6
2007-11-28 08:26:12 51°17.756 2°51.18 295.3 13 292 8.7
2007-11-28 08:26:17 51°17.763 2°51.153 295.2 13 291 8.8
2007-11-28 08:26:21 51°17.768 2°51.132 295.3 12.9 292 8.7
2007-11-28 08:26:27 51°17.777 2°51.1 296.5 13 293 9
2007-11-28 08:26:32 51°17.784 2°51.074 296.9 13 293 9
2007-11-28 08:26:37 51°17.791 2°51.047 297.6 13 294 9.2
2007-11-28 08:26:41 51°17.797 2°51.026 298.3 13 294 9.4
2007-11-28 08:26:47 51°17.806 2°50.995 298.3 13 294 9.5
2007-11-28 08:26:52 51°17.814 2°50.968 298.6 13.1 295 9.5
2007-11-28 08:26:57 51°17.821 2°50.942 298.6 13.1 294 9.8
2007-11-28 08:27:01 51°17.827 2°50.921 298.8 13.1 295 9.9
2007-11-28 08:27:07 51°17.836 2°50.889 299 13.1 295 10
2007-11-28 08:27:12 51°17.844 2°50.863 299.1 13.1 295 10.3
2007-11-28 08:27:17 51°17.851 2°50.837 299 13.1 295 10.3
2007-11-28 08:27:21 51°17.857 2°50.816 299 13.1 294 10.4
2007-11-28 08:27:27 51°17.866 2°50.784 299.4 13.1 295 10.4
2007-11-28 08:27:32 51°17.874 2°50.758 299.6 13.1 295 10.5
2007-11-28 08:27:37 51°17.882 2°50.731 299.6 13.1 295 10.6
2007-11-28 08:27:41 51°17.888 2°50.711 299.4 13.1 295 10.7
2007-11-28 08:27:47 51°17.897 2°50.679 299.5 13.1 295 10.9
2007-11-28 08:27:52 51°17.905 2°50.653 299.8 13.1 296 10.9
2007-11-28 08:27:57 51°17.913 2°50.627 300.4 13.1 297 10.9
2007-11-28 08:28:01 51°17.92 2°50.607 301.3 13.1 297 11
2007-11-28 08:28:07 51°17.93 2°50.576 301.3 13.1 297 11.1
2007-11-28 08:28:12 51°17.938 2°50.549 301.4 13.1 296 11.2
2007-11-28 08:28:17 51°17.946 2°50.523 301.1 13.1 296 11.2
2007-11-28 08:28:21 51°17.952 2°50.502 301.2 13.1 296 11.3
2007-11-28 08:28:27 51°17.962 2°50.472 301.6 13.1 297 11.5
2007-11-28 08:28:32 51°17.971 2°50.446 301.6 13.1 296 11.5
2007-11-28 08:28:37 51°17.979 2°50.42 301.3 13.1 297 11.6
2007-11-28 08:28:41 51°17.985 2°50.399 301.7 13.1 296 11.5
2007-11-28 08:28:47 51°17.995 2°50.368 301.5 13.1 297 11.7
2007-11-28 08:28:52 51°18.003 2°50.342 300.9 13.1 295 11.8
2007-11-28 08:28:57 51°18.011 2°50.316 300.2 13.1 295 11.9
2007-11-28 08:29:02 51°18.018 2°50.289 300.1 13.1 295 12
2007-11-28 08:29:07 51°18.026 2°50.264 299.9 13.1 296 12.1
2007-11-28 08:29:12 51°18.034 2°50.237 300.3 13.1 295 12.1
2007-11-28 08:29:17 51°18.042 2°50.211 300.4 13 296 12.2
2007-11-28 08:29:21 51°18.048 2°50.191 300.6 13 296 12.2
2007-11-28 08:29:27 51°18.057 2°50.159 300.6 13 296 12.2
2007-11-28 08:29:32 51°18.065 2°50.133 300.8 13 296 12.2
2007-11-28 08:29:37 51°18.073 2°50.108 300.8 13 296 12.4
2007-11-28 08:29:42 51°18.081 2°50.082 300.6 13 296 12.4
2007-11-28 08:29:47 51°18.089 2°50.055 300.8 13.1 296 12.4
2007-11-28 08:29:52 51°18.097 2°50.03 301 13.1 296 12.4
2007-11-28 08:29:57 51°18.105 2°50.004 301 13.1 296 12.4
2007-11-28 08:30:02 51°18.113 2°49.978 301.3 13 296 12.4
2007-11-28 08:30:07 51°18.121 2°49.952 301.6 13 296 12.4
2007-11-28 08:30:12 51°18.129 2°49.926 302 13.1 297 12.5
2007-11-28 08:30:17 51°18.137 2°49.9 302.1 13.1 296 12.4
2007-11-28 08:30:21 51°18.144 2°49.88 301.9 13.1 297 12.4
2007-11-28 08:30:27 51°18.153 2°49.848 301.8 13.1 296 12.4
2007-11-28 08:30:32 51°18.162 2°49.822 301.5 13.1 297 12.4
2007-11-28 08:30:37 51°18.169 2°49.796 301.4 13.1 296 12.4
2007-11-28 08:30:41 51°18.176 2°49.776 301.7 13.1 296 12.3
2007-11-28 08:30:47 51°18.185 2°49.744 301.2 13.1 295 12.4
2007-11-28 08:30:52 51°18.193 2°49.718 300.7 13.1 295 12.2
2007-11-28 08:30:57 51°18.2 2°49.691 300.5 13.1 294 12.1
2007-11-28 08:31:01 51°18.205 2°49.67 298.3 13.1 292 12.1
2007-11-28 08:31:07 51°18.213 2°49.637 297 13.1 291 11.9
2007-11-28 08:31:12 51°18.219 2°49.61 295.9 13.1 290 11.8
2007-11-28 08:31:17 51°18.225 2°49.582 294.9 13.2 289 11.8
2007-11-28 08:31:22 51°18.231 2°49.555 294.3 13.2 289 11.5
2007-11-28 08:31:27 51°18.237 2°49.527 293.6 13.2 288 11.6
2007-11-28 08:31:32 51°18.243 2°49.5 293.5 13.2 289 11.4
2007-11-28 08:31:37 51°18.249 2°49.472 293.7 13.2 289 11.1
2007-11-28 08:31:42 51°18.255 2°49.445 293.9 13.1 289 10.4
2007-11-28 08:31:47 51°18.261 2°49.417 294.2 13.1 290 9.9
2007-11-28 08:31:52 51°18.267 2°49.39 294.3 13.1 289 9.9
2007-11-28 08:31:57 51°18.273 2°49.362 294 13.1 289 10.1
2007-11-28 08:32:01 51°18.278 2°49.34 293.9 13.1 288 10.1
2007-11-28 08:32:07 51°18.285 2°49.307 293.2 13.2 289 10.2
2007-11-28 08:32:12 51°18.291 2°49.279 293.2 13.3 289 10.1
2007-11-28 08:32:17 51°18.297 2°49.251 293.4 13.3 288 9.7
2007-11-28 08:32:22 51°18.303 2°49.224 294 13.3 289 9.5
2007-11-28 08:32:27 51°18.309 2°49.196 293.3 13.2 289 9.5
2007-11-28 08:32:32 51°18.315 2°49.168 293.3 13.2 289 9.1
2007-11-28 08:32:37 51°18.321 2°49.141 293.7 13.2 290 9
2007-11-28 08:32:41 51°18.325 2°49.119 293.8 13.2 289 8.8
2007-11-28 08:32:47 51°18.333 2°49.086 293.5 13.1 289 8.4
2007-11-28 08:32:52 51°18.339 2°49.058 293.2 13.2 289 8.7
2007-11-28 08:32:57 51°18.345 2°49.031 293.5 13.2 289 8.7
2007-11-28 08:33:01 51°18.349 2°49.009 293.5 13.2 289 9
2007-11-28 08:33:07 51°18.356 2°48.975 293 13.3 288 9.2
2007-11-28 08:33:12 51°18.362 2°48.947 292.6 13.3 289 8.9
2007-11-28 08:33:17 51°18.368 2°48.919 292.5 13.4 288 9
2007-11-28 08:33:21 51°18.373 2°48.897 292.2 13.4 288 9
2007-11-28 08:33:27 51°18.38 2°48.863 292.3 13.4 289 9
2007-11-28 08:33:32 51°18.385 2°48.835 292.3 13.3 288 8.7
2007-11-28 08:33:37 51°18.392 2°48.807 292.2 13.4 289 8.3
2007-11-28 08:33:42 51°18.398 2°48.779 292.8 13.3 289 8.5
2007-11-28 08:33:47 51°18.404 2°48.751 293.2 13.4 289 8.8
2007-11-28 08:33:52 51°18.41 2°48.723 293.8 13.4 290 9.3
2007-11-28 08:33:57 51°18.417 2°48.696 294.4 13.4 291 9.1
2007-11-28 08:34:01 51°18.422 2°48.674 294.2 13.4 290 9.2
2007-11-28 08:34:07 51°18.43 2°48.64 294.6 13.5 291 9.5
2007-11-28 08:34:12 51°18.437 2°48.612 294.8 13.5 291 9.3
2007-11-28 08:34:17 51°18.443 2°48.584 294.8 13.5 291 9.1
2007-11-28 08:34:22 51°18.45 2°48.556 295 13.4 291 8.8
2007-11-28 08:34:27 51°18.456 2°48.528 294.3 13.4 290 8.2
2007-11-28 08:34:32 51°18.463 2°48.501 294 13.3 290 8.9
2007-11-28 08:34:37 51°18.468 2°48.473 293.2 13.3 289 9.5
2007-11-28 08:34:41 51°18.473 2°48.451 292.7 13.4 289 9.5
2007-11-28 08:34:47 51°18.481 2°48.417 292.6 13.5 289 9.8
2007-11-28 08:34:52 51°18.487 2°48.388 292.7 13.6 289 9.9
2007-11-28 08:34:57 51°18.493 2°48.36 292.5 13.6 289 10
2007-11-28 08:35:01 51°18.498 2°48.337 292.5 13.6 289 10.1
2007-11-28 08:35:07 51°18.506 2°48.303 292.9 13.5 290 10.2
2007-11-28 08:35:12 51°18.512 2°48.276 293.5 13.5 290 10.7
2007-11-28 08:35:17 51°18.519 2°48.247 293.7 13.5 290 10.9
2007-11-28 08:35:21 51°18.524 2°48.225 293.8 13.6 291 11.2
2007-11-28 08:35:27 51°18.533 2°48.192 294.6 13.6 292 11.5
2007-11-28 08:35:32 51°18.539 2°48.164 295.2 13.6 291 11.6
2007-11-28 08:35:37 51°18.546 2°48.136 294.7 13.6 291 11.9
2007-11-28 08:35:41 51°18.551 2°48.113 294.1 13.5 290 12
2007-11-28 08:35:47 51°18.558 2°48.079 293.2 13.5 289 12.1
2007-11-28 08:35:52 51°18.564 2°48.051 292.6 13.5 289 12.3
2007-11-28 08:35:57 51°18.57 2°48.023 291.8 13.5 288 12.5
2007-11-28 08:36:02 51°18.576 2°47.994 291.6 13.5 288 12.6
2007-11-28 08:36:07 51°18.581 2°47.966 291.2 13.5 287 12.7
2007-11-28 08:36:12 51°18.587 2°47.938 290.8 13.4 288 12.8
2007-11-28 08:36:17 51°18.593 2°47.91 290.7 13.4 288 13
2007-11-28 08:36:21 51°18.597 2°47.887 290.8 13.4 287 13
2007-11-28 08:36:27 51°18.604 2°47.853 290.7 13.3 288 13.2
2007-11-28 08:36:32 51°18.609 2°47.825 290.8 13.3 287 13.3
2007-11-28 08:36:37 51°18.615 2°47.797 290.5 13.3 288 13.4
2007-11-28 08:36:42 51°18.62 2°47.769 291 13.3 287 13.6
2007-11-28 08:36:47 51°18.626 2°47.741 290.8 13.3 287 13.8
2007-11-28 08:36:52 51°18.631 2°47.712 291.3 13.3 288 14.1
2007-11-28 08:36:57 51°18.637 2°47.684 291.5 13.3 287 14.4
2007-11-28 08:37:02 51°18.643 2°47.657 291.7 13.2 288 14.7
2007-11-28 08:37:07 51°18.648 2°47.629 292.3 13.2 288 15
2007-11-28 08:37:12 51°18.654 2°47.601 292.1 13.2 287 15.3
2007-11-28 08:37:17 51°18.659 2°47.573 291.4 13.2 287 15.4
2007-11-28 08:37:21 51°18.664 2°47.551 291.7 13.2 288 15.6
2007-11-28 08:37:27 51°18.67 2°47.517 291.9 13.2 288 15.8
2007-11-28 08:37:32 51°18.676 2°47.489 292.2 13.2 288 15.8
2007-11-28 08:37:37 51°18.681 2°47.461 291.8 13.3 287 16
2007-11-28 08:37:41 51°18.686 2°47.439 292.2 13.3 288 16
2007-11-28 08:37:47 51°18.693 2°47.405 292.4 13.3 287 16.1
2007-11-28 08:37:52 51°18.698 2°47.377 292.2 13.2 287 16.3
2007-11-28 08:37:57 51°18.704 2°47.349 292 13.3 287 16.3
2007-11-28 08:38:02 51°18.709 2°47.321 291.9 13.3 288 16.4
2007-11-28 08:38:07 51°18.714 2°47.293 291.7 13.3 286 16.4
2007-11-28 08:38:12 51°18.719 2°47.265 291.2 13.3 286 16.6
2007-11-28 08:38:17 51°18.725 2°47.236 291.1 13.3 286 16.8
2007-11-28 08:38:21 51°18.729 2°47.214 291.5 13.3 287 16.9
2007-11-28 08:38:27 51°18.735 2°47.18 291.7 13.3 287 16.9
2007-11-28 08:38:32 51°18.741 2°47.152 291.8 13.4 287 17
2007-11-28 08:38:37 51°18.746 2°47.123 291.9 13.4 287 17.2
2007-11-28 08:38:42 51°18.752 2°47.095 291.9 13.4 287 17.3
2007-11-28 08:38:47 51°18.757 2°47.067 291.9 13.3 287 17.5
2007-11-28 08:38:52 51°18.762 2°47.038 291.7 13.4 287 17.6
2007-11-28 08:38:57 51°18.768 2°47.01 291.7 13.4 287 17.7
2007-11-28 08:39:02 51°18.773 2°46.981 291.6 13.4 287 17.8
2007-11-28 08:39:07 51°18.778 2°46.953 291.7 13.3 287 17.8
2007-11-28 08:39:12 51°18.784 2°46.925 291.7 13.4 287 17.8
2007-11-28 08:39:17 51°18.789 2°46.896 291.8 13.4 287 18
2007-11-28 08:39:21 51°18.793 2°46.874 291.7 13.4 286 18.3
2007-11-28 08:39:27 51°18.799 2°46.84 291.6 13.3 286 18.5
2007-11-28 08:39:32 51°18.805 2°46.811 291.3 13.3 286 18.5
2007-11-28 08:39:37 51°18.809 2°46.782 291.4 13.4 286 18.5
2007-11-28 08:39:41 51°18.814 2°46.76 291.4 13.4 286 18.3
2007-11-28 08:39:47 51°18.82 2°46.726 291.4 13.3 286 18.1
2007-11-28 08:39:52 51°18.825 2°46.697 291.4 13.3 287 18.7
2007-11-28 08:39:57 51°18.83 2°46.669 291.7 13.4 286 19
2007-11-28 08:40:01 51°18.834 2°46.646 292.1 13.5 287 19.1
2007-11-28 08:40:07 51°18.841 2°46.612 292.6 13.4 287 19.3
2007-11-28 08:40:12 51°18.847 2°46.584 292.5 13.4 287 19.3
2007-11-28 08:40:17 51°18.852 2°46.555 292.6 13.4 287 19.3
2007-11-28 08:40:21 51°18.857 2°46.533 292.3 13.5 287 19.3
2007-11-28 08:40:27 51°18.863 2°46.499 292 13.4 287 19.4
2007-11-28 08:40:32 51°18.869 2°46.47 292.3 13.4 288 19.5
2007-11-28 08:40:37 51°18.875 2°46.442 292.6 13.4 288 19.4
2007-11-28 08:40:42 51°18.88 2°46.413 292.8 13.5 288 19.4
2007-11-28 08:40:47 51°18.887 2°46.385 293.2 13.5 289 19.6
2007-11-28 08:40:52 51°18.892 2°46.357 293.4 13.4 287 19.6
2007-11-28 08:40:57 51°18.898 2°46.329 292.9 13.4 288 19.6
2007-11-28 08:41:01 51°18.902 2°46.306 292.3 13.4 286 19.7
2007-11-28 08:41:07 51°18.908 2°46.272 291.8 13.4 287 19.6
2007-11-28 08:41:12 51°18.914 2°46.244 292.1 13.4 287 19.7
2007-11-28 08:41:17 51°18.919 2°46.215 292.6 13.4 288 19.6
2007-11-28 08:41:22 51°18.925 2°46.187 292.6 13.4 287 19.5
2007-11-28 08:41:27 51°18.931 2°46.159 292.7 13.4 289 19.5
2007-11-28 08:41:32 51°18.937 2°46.131 292.7 13.3 288 19.4
2007-11-28 08:41:37 51°18.942 2°46.103 293.1 13.3 288 19.5
2007-11-28 08:41:42 51°18.948 2°46.074 292.8 13.4 288 19.5
2007-11-28 08:41:47 51°18.954 2°46.046 292.5 13.4 287 19.6
2007-11-28 08:41:52 51°18.96 2°46.018 292.4 13.3 288 19.6
2007-11-28 08:41:57 51°18.966 2°45.99 292.8 13.4 288 19.7
2007-11-28 08:42:01 51°18.97 2°45.968 292.7 13.4 289 19.6
2007-11-28 08:42:07 51°18.977 2°45.934 293.1 13.3 288 19.3
2007-11-28 08:42:12 51°18.983 2°45.906 292.5 13.3 288 19
2007-11-28 08:42:17 51°18.989 2°45.878 292.4 13.3 288 18.6
2007-11-28 08:42:21 51°18.993 2°45.856 292.5 13.3 288 18.5
2007-11-28 08:42:27 51°19 2°45.822 291.9 13.3 287 18.6
2007-11-28 08:42:32 51°19.005 2°45.794 292 13.3 287 17.9
2007-11-28 08:42:37 51°19.011 2°45.766 291.9 13.3 288 17.9
2007-11-28 08:42:41 51°19.015 2°45.743 291.8 13.4 287 17.8
2007-11-28 08:42:47 51°19.022 2°45.71 291.8 13.4 287 17.7
2007-11-28 08:42:52 51°19.027 2°45.681 291.8 13.2 287 17.3
2007-11-28 08:42:57 51°19.032 2°45.653 291.7 13.4 287 16.4
2007-11-28 08:43:02 51°19.038 2°45.625 292 13.4 287 16.7
2007-11-28 08:43:07 51°19.044 2°45.597 292.3 13.4 288 16.4
2007-11-28 08:43:12 51°19.05 2°45.569 292.5 13.3 288 16.1
2007-11-28 08:43:17 51°19.055 2°45.541 292.6 13.4 287 15
2007-11-28 08:43:22 51°19.061 2°45.513 292.2 13.3 288 15
2007-11-28 08:43:27 51°19.067 2°45.485 292.5 13.4 288 15
2007-11-28 08:43:32 51°19.073 2°45.457 292.6 13.3 289 14.8
2007-11-28 08:43:37 51°19.078 2°45.429 292.2 13.2 287 13.9
2007-11-28 08:43:42 51°19.084 2°45.401 292 13.3 289 12.5
2007-11-28 08:43:47 51°19.089 2°45.372 291.7 13.4 287 13.6
2007-11-28 08:43:52 51°19.095 2°45.344 291.6 13.4 288 12.9
2007-11-28 08:43:57 51°19.1 2°45.316 291.7 13.3 288 11.2
2007-11-28 08:44:01 51°19.105 2°45.294 291.9 13.3 288 12.6
2007-11-28 08:44:07 51°19.111 2°45.26 291.7 13.4 287 11.9
2007-11-28 08:44:12 51°19.117 2°45.231 291.4 13.5 288 11
2007-11-28 08:44:17 51°19.123 2°45.203 292.3 13.4 289 10
2007-11-28 08:44:21 51°19.127 2°45.181 292.4 13.3 288 11.6
2007-11-28 08:44:27 51°19.135 2°45.147 293.2 13.3 290 11.6
2007-11-28 08:44:32 51°19.141 2°45.119 293.6 13.5 288 11.2
2007-11-28 08:44:37 51°19.147 2°45.091 293.2 13.5 290 10.5
2007-11-28 08:44:41 51°19.152 2°45.069 293.2 13.5 289 9.6
2007-11-28 08:44:47 51°19.159 2°45.035 292.6 13.4 288 8.3
2007-11-28 08:44:52 51°19.165 2°45.007 292.3 13.4 289 10.7
2007-11-28 08:44:57 51°19.17 2°44.979 292.1 13.4 288 10.1
2007-11-28 08:45:02 51°19.176 2°44.95 291.7 13.5 288 8.6
2007-11-28 08:45:07 51°19.182 2°44.922 291 13.5 287 9.4
2007-11-28 08:45:12 51°19.187 2°44.893 290.9 13.4 287 10.8
2007-11-28 08:45:17 51°19.193 2°44.865 290.5 13.5 288 10.2
2007-11-28 08:45:22 51°19.198 2°44.836 290.8 13.6 287 11.6
2007-11-28 08:45:27 51°19.204 2°44.807 291 13.7 289 11.4
2007-11-28 08:45:32 51°19.21 2°44.778 291.7 13.7 287 12.1
2007-11-28 08:45:37 51°19.216 2°44.749 292 13.7 289 13.3
2007-11-28 08:45:41 51°19.22 2°44.726 292.2 13.7 288 15.2
2007-11-28 08:45:47 51°19.228 2°44.691 291.9 13.7 288 16.6
2007-11-28 08:45:52 51°19.233 2°44.662 292 13.7 288 17.4
2007-11-28 08:45:57 51°19.239 2°44.633 292.3 13.7 288 18.4
2007-11-28 08:46:02 51°19.246 2°44.605 292.3 13.7 289 19.1
2007-11-28 08:46:07 51°19.251 2°44.576 292.5 13.6 289 19.4
2007-11-28 08:46:12 51°19.257 2°44.547 292.6 13.6 288 19.7
2007-11-28 08:46:17 51°19.263 2°44.519 292.6 13.6 289 19.7
2007-11-28 08:46:21 51°19.269 2°44.496 293.1 13.5 289 19.7
2007-11-28 08:46:27 51°19.276 2°44.462 292.7 13.5 289 20
2007-11-28 08:46:32 51°19.282 2°44.434 292.8 13.5 289 20.1
2007-11-28 08:46:37 51°19.287 2°44.406 292.8 13.5 288 20.1
2007-11-28 08:46:41 51°19.292 2°44.383 292.4 13.5 288 20.4
2007-11-28 08:46:47 51°19.299 2°44.349 291.9 13.5 287 20.3
2007-11-28 08:46:52 51°19.305 2°44.32 291.7 13.5 288 20.6
2007-11-28 08:46:57 51°19.31 2°44.292 291.6 13.5 287 20.7
2007-11-28 08:47:01 51°19.314 2°44.269 291.7 13.5 287 20.8
2007-11-28 08:47:07 51°19.321 2°44.235 291.7 13.4 288 20.8
2007-11-28 08:47:12 51°19.327 2°44.207 291.8 13.5 288 20.9
2007-11-28 08:47:17 51°19.332 2°44.178 291.7 13.5 287 21
2007-11-28 08:47:22 51°19.338 2°44.15 291.7 13.5 287 21.2
2007-11-28 08:47:27 51°19.344 2°44.121 291.7 13.5 288 21.2
2007-11-28 08:47:32 51°19.349 2°44.093 292.1 13.5 287 21.4
2007-11-28 08:47:37 51°19.355 2°44.064 292.2 13.5 287 21.5
2007-11-28 08:47:42 51°19.36 2°44.036 291.9 13.4 288 21.4
2007-11-28 08:47:47 51°19.366 2°44.008 292 13.4 287 21.5
2007-11-28 08:47:52 51°19.371 2°43.98 292.1 13.4 288 21.7
2007-11-28 08:47:57 51°19.377 2°43.951 292.1 13.4 287 21.7
2007-11-28 08:48:02 51°19.382 2°43.923 291.9 13.4 287 21.8
2007-11-28 08:48:07 51°19.388 2°43.895 292.2 13.4 287 21.9
2007-11-28 08:48:12 51°19.393 2°43.867 292.5 13.3 288 22.1
2007-11-28 08:48:17 51°19.399 2°43.838 292.5 13.4 287 22.1
2007-11-28 08:48:21 51°19.403 2°43.816 292.5 13.3 288 22.1
2007-11-28 08:48:27 51°19.41 2°43.782 292.7 13.4 287 22.2
2007-11-28 08:48:32 51°19.416 2°43.753 292.8 13.4 288 22.3
2007-11-28 08:48:37 51°19.421 2°43.725 293.2 13.4 288 22.3
2007-11-28 08:48:41 51°19.426 2°43.703 293.2 13.4 289 22.3
2007-11-28 08:48:47 51°19.433 2°43.668 293 13.4 287 22.4
2007-11-28 08:48:52 51°19.438 2°43.64 292.8 13.4 288 22.5
2007-11-28 08:48:57 51°19.444 2°43.611 292.7 13.5 287 22.6
2007-11-28 08:49:01 51°19.449 2°43.589 292.8 13.5 288 22.6
2007-11-28 08:49:07 51°19.455 2°43.555 292.5 13.4 287 22.6
2007-11-28 08:49:12 51°19.461 2°43.527 292.5 13.4 288 22.6
2007-11-28 08:49:17 51°19.467 2°43.498 292.5 13.4 288 22.8
2007-11-28 08:49:22 51°19.472 2°43.47 292.5 13.4 288 22.8
2007-11-28 08:49:27 51°19.478 2°43.442 292.7 13.5 288 22.9
2007-11-28 08:49:32 51°19.484 2°43.413 293 13.4 288 23
2007-11-28 08:49:37 51°19.49 2°43.386 293 13.4 289 23.1
2007-11-28 08:49:42 51°19.496 2°43.357 293.4 13.4 288 23.1
2007-11-28 08:49:47 51°19.502 2°43.329 293.3 13.4 289 23.2
2007-11-28 08:49:52 51°19.508 2°43.301 293.2 13.4 288 23.2
2007-11-28 08:49:57 51°19.514 2°43.273 292.6 13.4 288 23.3
2007-11-28 08:50:01 51°19.518 2°43.25 292.5 13.4 288 23.4
2007-11-28 08:50:07 51°19.526 2°43.217 292.1 13.4 289 23.4
2007-11-28 08:50:12 51°19.531 2°43.189 292.4 13.3 289 23.3
2007-11-28 08:50:17 51°19.537 2°43.161 292.4 13.4 288 23.4
2007-11-28 08:50:22 51°19.542 2°43.132 291.7 13.4 287 23.4
2007-11-28 08:50:27 51°19.548 2°43.104 291.7 13.3 289 23.4
2007-11-28 08:50:32 51°19.554 2°43.076 292.4 13.3 288 23.2
2007-11-28 08:50:37 51°19.56 2°43.048 292.5 13.3 288 23.3
2007-11-28 08:50:42 51°19.566 2°43.02 292.4 13.4 288 23.6
2007-11-28 08:50:47 51°19.572 2°42.992 292.5 13.3 289 23.6
2007-11-28 08:50:52 51°19.578 2°42.964 292.6 13.3 289 23.7
2007-11-28 08:50:57 51°19.583 2°42.936 293.1 13.4 288 23.7
2007-11-28 08:51:01 51°19.588 2°42.914 293 13.4 288 23.9
2007-11-28 08:51:07 51°19.595 2°42.88 292.4 13.3 288 23.8
2007-11-28 08:51:12 51°19.601 2°42.852 292.5 13.3 289 23.8
2007-11-28 08:51:17 51°19.607 2°42.824 292.6 13.3 288 23.8
2007-11-28 08:51:21 51°19.612 2°42.802 292.5 13.3 289 23.7
2007-11-28 08:51:27 51°19.619 2°42.768 292.5 13.3 289 23.8
2007-11-28 08:51:32 51°19.625 2°42.74 292.1 13.4 289 23.8
2007-11-28 08:51:37 51°19.63 2°42.712 291.8 13.4 288 23.8
2007-11-28 08:51:42 51°19.636 2°42.684 292.2 13.4 288 23.7
2007-11-28 08:51:47 51°19.642 2°42.656 291.8 13.4 289 23.6
2007-11-28 08:51:52 51°19.648 2°42.628 292 13.3 288 23.6
2007-11-28 08:51:57 51°19.654 2°42.6 292.2 13.3 289 23.7
2007-11-28 08:52:01 51°19.658 2°42.578 292.1 13.3 289 23.4
2007-11-28 08:52:07 51°19.665 2°42.544 293 13.2 289 23.6
2007-11-28 08:52:12 51°19.671 2°42.516 292.4 13.3 288 23.5
2007-11-28 08:52:17 51°19.676 2°42.488 291.7 13.3 287 23.4
2007-11-28 08:52:22 51°19.681 2°42.46 291 13.3 286 23.2
2007-11-28 08:52:27 51°19.687 2°42.432 291 13.3 287 23.3
2007-11-28 08:52:32 51°19.692 2°42.404 291.7 13.3 287 23.3
2007-11-28 08:52:37 51°19.698 2°42.376 292 13.3 288 23.3
2007-11-28 08:52:41 51°19.702 2°42.353 292.4 13.3 287 23.2
2007-11-28 08:52:47 51°19.709 2°42.319 292.5 13.4 287 23
2007-11-28 08:52:52 51°19.714 2°42.291 292.2 13.3 287 21.6
2007-11-28 08:52:57 51°19.72 2°42.263 292.4 13.3 288 22.4
2007-11-28 08:53:02 51°19.725 2°42.235 292.7 13.3 287 22.4
2007-11-28 08:53:07 51°19.731 2°42.207 292.5 13.3 288 22.6
2007-11-28 08:53:12 51°19.736 2°42.179 292.4 13.3 288 22.6
2007-11-28 08:53:17 51°19.742 2°42.151 292.7 13.3 287 22
2007-11-28 08:53:21 51°19.746 2°42.128 292.5 13.3 287 21.4
2007-11-28 08:53:27 51°19.753 2°42.095 292.4 13.3 288 20.1
2007-11-28 08:53:32 51°19.758 2°42.066 292.5 13.4 287 21.6
2007-11-28 08:53:37 51°19.764 2°42.038 292.2 13.4 288 21.7
2007-11-28 08:53:41 51°19.768 2°42.015 292.1 13.4 287 21.4
2007-11-28 08:53:47 51°19.775 2°41.981 292.5 13.4 287 21.1
2007-11-28 08:53:52 51°19.781 2°41.953 292.1 13.4 288 20.7
2007-11-28 08:53:57 51°19.786 2°41.925 292.2 13.5 287 20.2
2007-11-28 08:54:01 51°19.791 2°41.902 292.2 13.5 288 20.2
2007-11-28 08:54:07 51°19.797 2°41.868 292.4 13.4 287 19.6
2007-11-28 08:54:12 51°19.803 2°41.84 292.1 13.5 288 19.1
2007-11-28 08:54:17 51°19.808 2°41.811 292.7 13.4 288 18.6
2007-11-28 08:54:21 51°19.813 2°41.789 292.2 13.4 287 19.2
2007-11-28 08:54:27 51°19.82 2°41.755 292.5 13.4 288 19.4
2007-11-28 08:54:32 51°19.825 2°41.726 292.5 13.5 288 19.5
2007-11-28 08:54:37 51°19.83 2°41.697 292.5 13.5 286 19.1
2007-11-28 08:54:42 51°19.836 2°41.669 292.3 13.5 288 19.8
2007-11-28 08:54:47 51°19.842 2°41.64 292.5 13.5 287 18.2
2007-11-28 08:54:52 51°19.848 2°41.612 292.1 13.6 287 18.8
2007-11-28 08:54:57 51°19.853 2°41.583 292.4 13.5 288 18.3
2007-11-28 08:55:01 51°19.858 2°41.561 292.6 13.5 288 16.8
2007-11-28 08:55:07 51°19.864 2°41.526 292.5 13.6 287 17.7
2007-11-28 08:55:12 51°19.87 2°41.498 292.6 13.5 288 17.3
2007-11-28 08:55:17 51°19.875 2°41.469 292.1 13.5 287 14.8
2007-11-28 08:55:22 51°19.882 2°41.441 292.1 13.5 288 15.4
2007-11-28 08:55:27 51°19.887 2°41.412 292.5 13.5 287 16.5
2007-11-28 08:55:32 51°19.893 2°41.383 291.9 13.6 287 17.8
2007-11-28 08:55:37 51°19.898 2°41.355 292 13.6 287 17.8
2007-11-28 08:55:41 51°19.903 2°41.332 292.4 13.6 289 18.3
2007-11-28 08:55:47 51°19.91 2°41.298 292.6 13.6 288 17.9
2007-11-28 08:55:52 51°19.916 2°41.269 292.9 13.6 288 17.1
2007-11-28 08:55:57 51°19.922 2°41.241 292.5 13.5 288 18.3
2007-11-28 08:56:01 51°19.927 2°41.218 292.5 13.6 288 17.1
2007-11-28 08:56:07 51°19.933 2°41.183 292.2 13.6 287 18.6
2007-11-28 08:56:12 51°19.939 2°41.155 292.2 13.6 288 20
2007-11-28 08:56:17 51°19.945 2°41.126 291.9 13.6 287 20.5
2007-11-28 08:56:21 51°19.949 2°41.103 291 13.6 287 21.8
2007-11-28 08:56:27 51°19.955 2°41.068 290.5 13.6 286 22.2
2007-11-28 08:56:32 51°19.96 2°41.039 290.2 13.6 285 21.6
2007-11-28 08:56:37 51°19.965 2°41.01 289.5 13.6 285 21.7
2007-11-28 08:56:41 51°19.969 2°40.987 289.1 13.6 285 21.7
2007-11-28 08:56:47 51°19.975 2°40.952 288.8 13.6 285 21.3
2007-11-28 08:56:52 51°19.979 2°40.922 288.8 13.6 284 18.9
2007-11-28 08:56:57 51°19.984 2°40.893 288.8 13.7 284 19.2
2007-11-28 08:57:01 51°19.988 2°40.869 288.6 13.7 284 18.7
2007-11-28 08:57:07 51°19.993 2°40.834 288.1 13.7 284 18.8
2007-11-28 08:57:12 51°19.998 2°40.804 288.1 13.7 285 19.1
2007-11-28 08:57:17 51°20.002 2°40.775 288 13.7 284 19
2007-11-28 08:57:22 51°20.007 2°40.746 288.4 13.8 284 18.5
2007-11-28 08:57:27 51°20.012 2°40.716 288.8 13.7 285 18.8
2007-11-28 08:57:32 51°20.017 2°40.687 288.5 13.8 285 21.7
2007-11-28 08:57:37 51°20.021 2°40.657 288.6 13.7 284 24.3
2007-11-28 08:57:41 51°20.025 2°40.634 288.2 13.7 284 25.7
2007-11-28 08:57:47 51°20.03 2°40.598 287.9 13.7 283 26.4
2007-11-28 08:57:52 51°20.035 2°40.569 287.6 13.7 284 26.6
2007-11-28 08:57:57 51°20.039 2°40.539 287.5 13.7 284 26.6
2007-11-28 08:58:01 51°20.043 2°40.515 287.9 13.7 284 26.8
2007-11-28 08:58:07 51°20.048 2°40.48 287.7 13.8 283 26.7
2007-11-28 08:58:12 51°20.052 2°40.45 287.7 13.7 284 26.8
2007-11-28 08:58:17 51°20.057 2°40.421 287.8 13.6 283 26.9
2007-11-28 08:58:21 51°20.061 2°40.398 288.1 13.6 285 27.1
2007-11-28 08:58:27 51°20.066 2°40.362 288.1 13.6 283 27
2007-11-28 08:58:32 51°20.07 2°40.333 288.1 13.5 284 27.1
2007-11-28 08:58:37 51°20.074 2°40.304 288.2 13.6 284 27
2007-11-28 08:58:41 51°20.078 2°40.281 288 13.6 284 26.6
2007-11-28 08:58:47 51°20.083 2°40.246 288.4 13.5 283 26.6
2007-11-28 08:58:52 51°20.088 2°40.217 287.9 13.6 284 26.8
2007-11-28 08:58:57 51°20.093 2°40.188 288.8 13.6 285 27
2007-11-28 08:59:01 51°20.096 2°40.164 288.6 13.5 284 26.9
2007-11-28 08:59:07 51°20.102 2°40.13 288.6 13.5 285 27
2007-11-28 08:59:12 51°20.106 2°40.101 288.4 13.5 284 27
2007-11-28 08:59:17 51°20.111 2°40.072 288.4 13.5 285 27.1
2007-11-28 08:59:22 51°20.115 2°40.043 288.2 13.5 283 26.8
2007-11-28 08:59:27 51°20.12 2°40.014 287.8 13.5 284 26.8
2007-11-28 08:59:32 51°20.124 2°39.984 288.1 13.5 283 26.7
2007-11-28 08:59:37 51°20.128 2°39.956 287.4 13.4 283 26.6
2007-11-28 08:59:41 51°20.131 2°39.932 287.5 13.4 283 26.7
2007-11-28 08:59:47 51°20.136 2°39.897 287.2 13.4 282 26.6
2007-11-28 08:59:52 51°20.14 2°39.868 288 13.4 283 26.7
2007-11-28 08:59:57 51°20.144 2°39.84 288.1 13.4 283 26.8
2007-11-28 09:00:02 51°20.148 2°39.81 287.9 13.4 283 26.9
2007-11-28 09:00:07 51°20.152 2°39.782 288.1 13.5 283 26.9
2007-11-28 09:00:12 51°20.157 2°39.753 287.8 13.4 283 26.8
2007-11-28 09:00:17 51°20.16 2°39.724 288.1 13.4 282 26.8
2007-11-28 09:00:21 51°20.164 2°39.7 287.6 13.5 282 26.9
2007-11-28 09:00:27 51°20.168 2°39.666 288.1 13.5 282 26.6
2007-11-28 09:00:32 51°20.172 2°39.636 287.9 13.5 283 26.3
2007-11-28 09:00:37 51°20.177 2°39.608 288.1 13.4 283 26
2007-11-28 09:00:41 51°20.18 2°39.584 288.5 13.5 283 25.6
2007-11-28 09:00:47 51°20.185 2°39.55 288.4 13.4 284 25.4
2007-11-28 09:00:52 51°20.19 2°39.521 289 13.4 283 25.2
2007-11-28 09:00:57 51°20.194 2°39.492 289 13.5 283 25.1
2007-11-28 09:01:02 51°20.198 2°39.462 288 13.4 282 25
2007-11-28 09:01:07 51°20.202 2°39.434 288.1 13.5 283 24.9
2007-11-28 09:01:12 51°20.206 2°39.405 288 13.5 282 24.7
2007-11-28 09:01:17 51°20.211 2°39.376 287.8 13.4 283 24.5
2007-11-28 09:01:22 51°20.215 2°39.347 288.4 13.4 284 24.3
2007-11-28 09:01:27 51°20.22 2°39.318 288.7 13.5 283 24.2
2007-11-28 09:01:32 51°20.224 2°39.288 288.5 13.5 283 24
2007-11-28 09:01:37 51°20.228 2°39.259 288.1 13.5 282 23.7
2007-11-28 09:01:41 51°20.231 2°39.236 287.7 13.5 284 23.6
2007-11-28 09:01:47 51°20.236 2°39.201 288.4 13.5 283 23.6
2007-11-28 09:01:52 51°20.241 2°39.172 288.6 13.6 284 23.5
2007-11-28 09:01:57 51°20.245 2°39.143 288.8 13.6 284 23.2
2007-11-28 09:02:01 51°20.248 2°39.12 288.3 13.5 283 23
2007-11-28 09:02:07 51°20.253 2°39.085 288.1 13.5 283 22.4
2007-11-28 09:02:12 51°20.257 2°39.056 288.1 13.5 282 22.9
2007-11-28 09:02:17 51°20.262 2°39.027 288.1 13.4 283 23.1
2007-11-28 09:02:21 51°20.265 2°39.003 288.1 13.4 282 23.1
2007-11-28 09:02:27 51°20.27 2°38.969 287.9 13.4 283 23
2007-11-28 09:02:32 51°20.274 2°38.94 288 13.4 283 23.2
2007-11-28 09:02:37 51°20.278 2°38.911 288.1 13.4 283 23.1
2007-11-28 09:02:41 51°20.281 2°38.888 288.1 13.4 283 22.9
2007-11-28 09:02:47 51°20.286 2°38.853 288.1 13.4 283 22.9
2007-11-28 09:02:52 51°20.29 2°38.824 288.2 13.3 282 22.9
2007-11-28 09:02:57 51°20.294 2°38.796 287.9 13.2 283 22.9
2007-11-28 09:03:01 51°20.298 2°38.773 288 13.1 282 22.8
2007-11-28 09:03:07 51°20.302 2°38.739 287.8 13.2 282 22.8
2007-11-28 09:03:12 51°20.306 2°38.71 287.6 13.3 282 22.7
2007-11-28 09:03:17 51°20.31 2°38.682 287.8 13.3 282 22.5
2007-11-28 09:03:21 51°20.313 2°38.659 288.2 13.3 283 22.5
2007-11-28 09:03:27 51°20.318 2°38.624 288.1 13.3 282 22.3
2007-11-28 09:03:32 51°20.322 2°38.595 288.1 13.4 283 21.9
2007-11-28 09:03:37 51°20.326 2°38.566 288.8 13.4 284 21.8
2007-11-28 09:03:42 51°20.331 2°38.538 288.7 13.4 284 21.8
2007-11-28 09:03:47 51°20.335 2°38.509 288.8 13.4 283 21.9
2007-11-28 09:03:52 51°20.339 2°38.48 288.8 13.4 283 21.6
2007-11-28 09:03:57 51°20.343 2°38.451 288 13.4 282 21.4
2007-11-28 09:04:01 51°20.347 2°38.428 288.5 13.4 284 22.5
2007-11-28 09:04:07 51°20.352 2°38.393 288.6 13.4 283 22.8
2007-11-28 09:04:12 51°20.356 2°38.364 288.2 13.4 283 22.4
2007-11-28 09:04:17 51°20.36 2°38.335 288.1 13.4 283 22.1
2007-11-28 09:04:22 51°20.364 2°38.306 288.1 13.4 283 22.5
2007-11-28 09:04:27 51°20.368 2°38.277 288.1 13.4 283 22.3
2007-11-28 09:04:32 51°20.373 2°38.249 288.1 13.4 284 22.4
2007-11-28 09:04:37 51°20.377 2°38.22 288.6 13.4 283 21.8
2007-11-28 09:04:41 51°20.381 2°38.197 288.8 13.4 285 22.3
2007-11-28 09:04:47 51°20.386 2°38.162 288.8 13.4 284 22.4
2007-11-28 09:04:52 51°20.39 2°38.133 288.8 13.4 283 22
2007-11-28 09:04:57 51°20.395 2°38.104 288.5 13.4 284 21.1
2007-11-28 09:05:01 51°20.398 2°38.081 288.6 13.4 283 21.4
2007-11-28 09:05:07 51°20.403 2°38.046 288.6 13.5 284 22.1
2007-11-28 09:05:12 51°20.407 2°38.018 288.1 13.5 283 22.1
2007-11-28 09:05:17 51°20.412 2°37.988 288.4 13.5 284 21.9
2007-11-28 09:05:21 51°20.415 2°37.965 288.3 13.4 284 21.8
2007-11-28 09:05:27 51°20.421 2°37.931 288.9 13.3 284 22
2007-11-28 09:05:32 51°20.425 2°37.902 288.6 13.4 283 21.7
2007-11-28 09:05:37 51°20.429 2°37.873 287.9 13.4 283 20.5
2007-11-28 09:05:42 51°20.433 2°37.844 288.1 13.4 283 21.6
2007-11-28 09:05:47 51°20.438 2°37.814 287.8 13.5 283 21.8
2007-11-28 09:05:52 51°20.442 2°37.785 287.6 13.5 283 21.8
2007-11-28 09:05:57 51°20.446 2°37.756 287.9 13.4 283 21.4
2007-11-28 09:06:01 51°20.45 2°37.733 288.5 13.5 284 21
2007-11-28 09:06:07 51°20.455 2°37.699 289 13.4 284 20.5
2007-11-28 09:06:12 51°20.46 2°37.67 288.7 13.5 283 21.7
2007-11-28 09:06:17 51°20.464 2°37.641 288.3 13.5 284 21.7
2007-11-28 09:06:21 51°20.467 2°37.617 288.6 13.4 283 21
2007-11-28 09:06:27 51°20.473 2°37.583 288.1 13.4 283 19.2
2007-11-28 09:06:32 51°20.477 2°37.554 288.1 13.5 284 21.7
2007-11-28 09:06:37 51°20.481 2°37.525 288.5 13.4 284 21.3
2007-11-28 09:06:42 51°20.486 2°37.496 288.7 13.4 284 21.1
2007-11-28 09:06:47 51°20.49 2°37.467 288.1 13.4 284 22
2007-11-28 09:06:52 51°20.494 2°37.438 287.7 13.4 283 21.9
2007-11-28 09:06:57 51°20.498 2°37.41 287.7 13.4 284 21.7
2007-11-28 09:07:01 51°20.502 2°37.386 288.4 13.4 283 21.2
2007-11-28 09:07:07 51°20.507 2°37.351 288.1 13.5 283 21.8
2007-11-28 09:07:12 51°20.512 2°37.322 288.1 13.5 284 21.3
2007-11-28 09:07:17 51°20.516 2°37.293 288.3 13.4 284 21.3
2007-11-28 09:07:21 51°20.52 2°37.27 288.2 13.4 284 21.9
2007-11-28 09:07:27 51°20.525 2°37.236 287.9 13.4 283 21.7
2007-11-28 09:07:32 51°20.53 2°37.206 288.1 13.4 284 21
2007-11-28 09:07:37 51°20.534 2°37.177 288.2 13.5 283 20.8
2007-11-28 09:07:41 51°20.537 2°37.154 287.7 13.5 283 21.7
2007-11-28 09:07:47 51°20.542 2°37.119 287.4 13.5 283 21.1
2007-11-28 09:07:52 51°20.547 2°37.09 288.2 13.4 283 21.5
2007-11-28 09:07:57 51°20.551 2°37.061 288.1 13.4 284 21
2007-11-28 09:08:01 51°20.555 2°37.038 288.6 13.4 284 21.1
2007-11-28 09:08:07 51°20.56 2°37.003 288.7 13.5 283 21.6
2007-11-28 09:08:12 51°20.564 2°36.974 288.2 13.5 283 21.4
2007-11-28 09:08:17 51°20.568 2°36.945 287.8 13.5 283 20.9
2007-11-28 09:08:21 51°20.572 2°36.922 288.4 13.5 283 20.5
2007-11-28 09:08:27 51°20.577 2°36.887 288.2 13.4 283 20.8
2007-11-28 09:08:32 51°20.581 2°36.858 288.4 13.4 284 20.4
2007-11-28 09:08:37 51°20.585 2°36.829 288.3 13.4 283 19.2
2007-11-28 09:08:42 51°20.589 2°36.8 288.1 13.5 283 20.1
2007-11-28 09:08:47 51°20.593 2°36.771 288.1 13.4 283 20.3
2007-11-28 09:08:52 51°20.598 2°36.742 288.2 13.4 284 19.3
2007-11-28 09:08:57 51°20.602 2°36.714 288.5 13.5 284 20.3
2007-11-28 09:09:01 51°20.606 2°36.69 288.6 13.4 283 19.6
2007-11-28 09:09:07 51°20.61 2°36.655 288.3 13.5 283 19.4
2007-11-28 09:09:12 51°20.615 2°36.626 288 13.5 283 19.9
2007-11-28 09:09:17 51°20.619 2°36.597 287.9 13.5 283 20.2
2007-11-28 09:09:22 51°20.623 2°36.568 288 13.5 283 20
2007-11-28 09:09:27 51°20.627 2°36.539 288.1 13.5 283 19.1
2007-11-28 09:09:32 51°20.631 2°36.509 288.6 13.6 282 19.2
2007-11-28 09:09:37 51°20.635 2°36.48 288.1 13.6 283 19.4
2007-11-28 09:09:41 51°20.639 2°36.456 288.6 13.6 283 19.8
2007-11-28 09:09:47 51°20.644 2°36.422 288.8 13.5 284 19.3
2007-11-28 09:09:52 51°20.648 2°36.392 288.6 13.6 283 18.8
2007-11-28 09:09:57 51°20.652 2°36.363 288.7 13.6 283 18.8
2007-11-28 09:10:01 51°20.655 2°36.339 288.4 13.6 282 19.4
2007-11-28 09:10:07 51°20.66 2°36.304 288.2 13.6 283 18.8
2007-11-28 09:10:12 51°20.664 2°36.275 287.9 13.6 282 19.4
2007-11-28 09:10:17 51°20.667 2°36.246 288.2 13.6 283 19.7
2007-11-28 09:10:21 51°20.671 2°36.223 287.9 13.6 283 19.6
2007-11-28 09:10:27 51°20.676 2°36.188 288.1 13.6 283 19.5
2007-11-28 09:10:32 51°20.68 2°36.158 288.5 13.6 283 19.2
2007-11-28 09:10:37 51°20.684 2°36.129 288.4 13.6 283 19.3
2007-11-28 09:10:41 51°20.688 2°36.105 288.1 13.7 283 20.2
2007-11-28 09:10:47 51°20.693 2°36.07 288.5 13.7 283 20.7
2007-11-28 09:10:52 51°20.697 2°36.04 288.1 13.7 283 21.1
2007-11-28 09:10:57 51°20.701 2°36.011 287.7 13.7 283 21.8
2007-11-28 09:11:02 51°20.706 2°35.982 287.7 13.5 283 21.8
2007-11-28 09:11:07 51°20.71 2°35.952 288.4 13.5 284 22
2007-11-28 09:11:12 51°20.714 2°35.923 288.1 13.5 283 21.8
2007-11-28 09:11:17 51°20.718 2°35.894 288.1 13.6 282 20.9
2007-11-28 09:11:21 51°20.721 2°35.87 287.7 13.6 282 20.4
2007-11-28 09:11:27 51°20.727 2°35.835 288.1 13.6 283 22
2007-11-28 09:11:32 51°20.731 2°35.805 288.4 13.6 283 21.9
2007-11-28 09:11:37 51°20.735 2°35.776 288.2 13.6 284 21.9
2007-11-28 09:11:41 51°20.738 2°35.753 288.6 13.7 282 23.2
2007-11-28 09:11:47 51°20.744 2°35.717 288.1 13.6 283 25.2
2007-11-28 09:11:52 51°20.747 2°35.688 288.1 13.6 282 26.3
2007-11-28 09:11:57 51°20.752 2°35.658 288 13.7 284 27.4
2007-11-28 09:12:01 51°20.756 2°35.635 288.6 13.7 283 27.7
2007-11-28 09:12:07 51°20.76 2°35.6 288.4 13.6 282 27.7
2007-11-28 09:12:12 51°20.765 2°35.57 288.4 13.6 283 25.7
2007-11-28 09:12:17 51°20.769 2°35.541 288.8 13.6 283 25.9
2007-11-28 09:12:21 51°20.772 2°35.517 288.5 13.7 283 26.8
2007-11-28 09:12:27 51°20.777 2°35.481 288.1 13.7 282 26.6
2007-11-28 09:12:32 51°20.781 2°35.452 287.7 13.7 282 27.8
2007-11-28 09:12:37 51°20.785 2°35.422 287.7 13.7 282 27.6
2007-11-28 09:12:41 51°20.788 2°35.399 288 13.7 282 28.7
2007-11-28 09:12:47 51°20.793 2°35.363 288.4 13.7 283 29.3
2007-11-28 09:12:52 51°20.798 2°35.334 288.1 13.6 283 30
2007-11-28 09:12:57 51°20.802 2°35.305 288.8 13.6 284 30.4
2007-11-28 09:13:02 51°20.806 2°35.275 288.7 13.6 283 29.8
2007-11-28 09:13:07 51°20.811 2°35.246 288.5 13.6 283 29.2
2007-11-28 09:13:12 51°20.815 2°35.217 288.5 13.5 283 29.7
2007-11-28 09:13:17 51°20.819 2°35.187 288.8 13.6 283 30.2
2007-11-28 09:13:21 51°20.822 2°35.164 288.8 13.7 283 27.7
2007-11-28 09:13:27 51°20.827 2°35.128 288.2 13.6 282 28.5
2007-11-28 09:13:32 51°20.831 2°35.098 288.3 13.7 282 29.6
2007-11-28 09:13:37 51°20.836 2°35.069 287.9 13.7 283 30.5
2007-11-28 09:13:42 51°20.84 2°35.04 288.2 13.6 283 31
2007-11-28 09:13:47 51°20.844 2°35.01 288.1 13.5 284 31.4
2007-11-28 09:13:52 51°20.849 2°34.981 289 13.6 283 30.3
2007-11-28 09:13:57 51°20.853 2°34.952 288.7 13.5 283 28.5
2007-11-28 09:14:01 51°20.856 2°34.928 288.2 13.6 282 30
2007-11-28 09:14:07 51°20.861 2°34.893 287.7 13.6 283 30.2
2007-11-28 09:14:12 51°20.865 2°34.864 287.8 13.5 282 30.2
2007-11-28 09:14:17 51°20.869 2°34.834 287.9 13.6 283 30.2
2007-11-28 09:14:21 51°20.873 2°34.811 288.5 13.6 283 30.2
2007-11-28 09:14:27 51°20.878 2°34.776 288.5 13.6 283 30.3
2007-11-28 09:14:32 51°20.882 2°34.746 288.7 13.6 283 30.5
2007-11-28 09:14:37 51°20.887 2°34.717 288.1 13.6 284 30.2
2007-11-28 09:14:42 51°20.891 2°34.688 288.3 13.6 283 30.3
2007-11-28 09:14:47 51°20.895 2°34.658 288.7 13.6 282 30.1
2007-11-28 09:14:52 51°20.899 2°34.629 288.5 13.6 283 30.5
2007-11-28 09:14:57 51°20.903 2°34.599 288.1 13.6 282 30.6
2007-11-28 09:15:02 51°20.907 2°34.569 288.1 13.7 282 30.4
2007-11-28 09:15:07 51°20.911 2°34.54 288.1 13.6 283 30.5
2007-11-28 09:15:12 51°20.915 2°34.511 288 13.6 283 30.2
2007-11-28 09:15:17 51°20.919 2°34.481 287.9 13.6 282 29.9
2007-11-28 09:15:21 51°20.922 2°34.458 288.1 13.5 282 29.6
2007-11-28 09:15:27 51°20.927 2°34.423 288.3 13.5 283 29.5
2007-11-28 09:15:32 51°20.932 2°34.394 288.8 13.5 284 29.3
2007-11-28 09:15:37 51°20.936 2°34.364 288.7 13.5 282 29.4
2007-11-28 09:15:42 51°20.94 2°34.335 288.4 13.6 283 29.5
2007-11-28 09:15:47 51°20.944 2°34.305 288.3 13.6 282 29.6
2007-11-28 09:15:52 51°20.948 2°34.276 288.1 13.6 283 29.6
2007-11-28 09:15:57 51°20.952 2°34.247 288.3 13.6 283 29.5
2007-11-28 09:16:01 51°20.955 2°34.223 288.1 13.7 282 29.6
2007-11-28 09:16:07 51°20.96 2°34.187 288.3 13.6 283 29.7
2007-11-28 09:16:12 51°20.964 2°34.158 287.8 13.7 283 29.9
2007-11-28 09:16:17 51°20.968 2°34.128 287.2 13.6 281 29.6
2007-11-28 09:16:21 51°20.971 2°34.105 287.6 13.6 282 29.7
2007-11-28 09:16:27 51°20.976 2°34.069 287.7 13.6 282 29.5
2007-11-28 09:16:32 51°20.98 2°34.04 288.1 13.5 283 29.5
2007-11-28 09:16:37 51°20.985 2°34.011 288.3 13.6 282 29.4
2007-11-28 09:16:41 51°20.988 2°33.987 288.1 13.5 283 28.5
2007-11-28 09:16:47 51°20.993 2°33.952 288.4 13.5 282 29.1
2007-11-28 09:16:52 51°20.997 2°33.923 288.6 13.6 283 29.2